createdAt,value
2019-06-20T00:00:14.943Z,99.90
2019-06-20T00:02:45.430Z,99.90
2019-06-20T00:05:15.874Z,99.90
2019-06-20T00:07:46.509Z,99.90
2019-06-20T00:10:17.239Z,99.90
2019-06-20T00:12:59.905Z,99.90
2019-06-20T00:15:19.955Z,99.90
2019-06-20T00:17:50.967Z,99.90
2019-06-20T00:20:21.550Z,99.90
2019-06-20T00:22:52.267Z,99.90
2019-06-20T00:25:22.811Z,99.90
2019-06-20T00:27:53.316Z,99.90
2019-06-20T00:30:23.806Z,99.90
2019-06-20T00:32:54.234Z,99.90
2019-06-20T00:35:24.536Z,99.90
2019-06-20T00:37:55.032Z,99.90
2019-06-20T00:40:25.402Z,99.90
2019-06-20T00:42:55.745Z,99.90
2019-06-20T00:45:26.511Z,99.90
2019-06-20T00:47:56.919Z,99.90
2019-06-20T00:50:28.680Z,99.90
2019-06-20T00:52:59.219Z,99.90
2019-06-20T00:55:29.874Z,99.90
2019-06-20T00:58:00.458Z,99.90
2019-06-20T01:00:31.110Z,99.90
2019-06-20T01:03:02.279Z,99.90
2019-06-20T01:05:32.742Z,99.90
2019-06-20T01:08:03.782Z,99.90
2019-06-20T01:10:34.572Z,99.90
2019-06-20T01:13:05.375Z,99.90
2019-06-20T01:15:35.986Z,99.90
2019-06-20T01:18:07.196Z,99.90
2019-06-20T01:20:37.677Z,99.90
2019-06-20T01:23:08.073Z,99.90
2019-06-20T01:25:40.358Z,99.90
2019-06-20T01:28:10.838Z,99.90
2019-06-20T01:30:41.831Z,99.90
2019-06-20T01:33:12.783Z,99.90
2019-06-20T01:35:44.182Z,99.90
2019-06-20T01:38:14.734Z,99.90
2019-06-20T01:40:46.437Z,99.90
2019-06-20T01:43:18.279Z,99.90
2019-06-20T01:45:49.103Z,99.90
2019-06-20T01:48:19.896Z,99.90
2019-06-20T01:50:50.312Z,99.90
2019-06-20T01:53:20.710Z,99.90
2019-06-20T01:55:51.240Z,99.90
2019-06-20T01:58:21.898Z,99.90
2019-06-20T02:00:52.446Z,99.90
2019-06-20T02:03:23.144Z,99.90
2019-06-20T02:05:53.656Z,99.90
2019-06-20T02:08:24.328Z,99.90
2019-06-20T02:10:55.310Z,99.90
2019-06-20T02:13:26.177Z,99.90
2019-06-20T02:15:56.843Z,99.90
2019-06-20T02:18:27.282Z,99.90
2019-06-20T02:21:02.905Z,99.90
2019-06-20T02:23:33.446Z,99.90
2019-06-20T02:26:04.160Z,99.90
2019-06-20T02:28:35.140Z,99.90
2019-06-20T02:31:05.721Z,99.90
2019-06-20T02:33:36.127Z,99.90
2019-06-20T02:36:06.911Z,99.90
2019-06-20T02:38:37.499Z,99.90
2019-06-20T02:41:08.483Z,99.90
2019-06-20T02:43:39.058Z,99.90
2019-06-20T02:46:09.850Z,99.90
2019-06-20T02:48:40.340Z,99.90
2019-06-20T02:51:10.795Z,99.90
2019-06-20T02:53:41.178Z,99.90
2019-06-20T02:56:11.598Z,99.90
2019-06-20T02:58:41.982Z,99.90
2019-06-20T03:01:12.507Z,99.90
2019-06-20T03:03:43.014Z,99.90
2019-06-20T03:06:13.386Z,99.90
2019-06-20T03:08:43.797Z,99.90
2019-06-20T03:11:14.312Z,99.90
2019-06-20T03:13:44.694Z,99.90
2019-06-20T03:16:15.220Z,99.90
2019-06-20T03:18:45.723Z,99.90
2019-06-20T03:21:16.218Z,99.90
2019-06-20T03:23:46.710Z,99.90
2019-06-20T03:26:17.214Z,99.90
2019-06-20T03:28:47.567Z,99.90
2019-06-20T03:31:18.140Z,99.90
2019-06-20T03:33:48.545Z,99.90
2019-06-20T03:36:18.926Z,99.90
2019-06-20T03:38:49.850Z,99.90
2019-06-20T03:41:20.482Z,99.90
2019-06-20T03:43:50.942Z,99.90
2019-06-20T03:46:21.531Z,99.90
2019-06-20T03:48:52.026Z,99.90
2019-06-20T03:51:22.578Z,99.90
2019-06-20T03:53:53.083Z,99.90
2019-06-20T03:56:23.673Z,99.90
2019-06-20T03:58:54.058Z,99.90
2019-06-20T04:01:24.761Z,99.90
2019-06-20T04:03:55.157Z,99.90
2019-06-20T04:06:25.640Z,99.90
2019-06-20T04:08:56.154Z,99.90
2019-06-20T04:11:26.579Z,99.90
2019-06-20T04:13:56.991Z,99.90
2019-06-20T04:16:27.402Z,99.90
2019-06-20T04:18:57.785Z,99.90
2019-06-20T04:21:28.686Z,99.90
2019-06-20T04:23:59.190Z,99.90
2019-06-20T04:26:29.778Z,99.90
2019-06-20T04:29:00.212Z,99.90
2019-06-20T04:31:30.608Z,99.90
2019-06-20T04:34:00.995Z,99.90
2019-06-20T04:36:31.515Z,99.90
2019-06-20T04:39:15.626Z,99.90
2019-06-20T04:41:34.142Z,99.90
2019-06-20T04:44:04.810Z,99.90
2019-06-20T04:46:44.577Z,99.90
2019-06-20T04:49:15.223Z,99.90
2019-06-20T04:51:45.618Z,99.90
2019-06-20T04:54:16.150Z,99.90
2019-06-20T04:56:48.698Z,99.90
2019-06-20T04:59:19.155Z,99.90
2019-06-20T05:01:49.564Z,99.90
2019-06-20T05:04:20.070Z,99.90
2019-06-20T05:06:54.587Z,99.90
2019-06-20T05:09:25.054Z,99.90
2019-06-20T05:11:55.422Z,99.90
2019-06-20T05:14:25.854Z,99.90
2019-06-20T05:16:56.368Z,99.90
2019-06-20T05:19:26.747Z,99.90
2019-06-20T05:21:57.293Z,99.90
2019-06-20T05:24:27.814Z,99.90
2019-06-20T05:26:59.714Z,99.90
2019-06-20T05:29:30.134Z,99.90
2019-06-20T05:32:00.732Z,99.90
2019-06-20T05:34:31.810Z,99.90
2019-06-20T05:37:02.295Z,99.90
2019-06-20T05:39:32.990Z,99.90
2019-06-20T05:42:03.558Z,99.90
2019-06-20T05:44:33.962Z,99.90
2019-06-20T05:47:12.359Z,99.90
2019-06-20T05:49:37.211Z,99.90
2019-06-20T05:52:07.669Z,99.90
2019-06-20T05:54:38.735Z,99.90
2019-06-20T05:57:09.378Z,99.90
2019-06-20T05:59:39.775Z,99.90
2019-06-20T06:02:10.227Z,99.90
2019-06-20T06:04:40.634Z,99.90
2019-06-20T06:07:14.146Z,99.90
2019-06-20T06:09:43.331Z,99.90
2019-06-20T06:12:13.743Z,99.90
2019-06-20T06:14:44.502Z,99.90
2019-06-20T06:17:14.889Z,99.90
2019-06-20T06:19:45.374Z,99.90
2019-06-20T06:22:15.850Z,99.90
2019-06-20T06:24:46.346Z,99.90
2019-06-20T06:27:16.826Z,99.90
2019-06-20T06:29:47.398Z,99.90
2019-06-20T06:32:20.195Z,99.90
2019-06-20T06:34:50.203Z,99.90
2019-06-20T06:37:20.678Z,99.90
2019-06-20T06:39:51.088Z,99.90
2019-06-20T06:42:22.875Z,99.90
2019-06-20T06:44:53.318Z,99.90
2019-06-20T06:47:23.845Z,99.90
2019-06-20T06:49:54.255Z,99.90
2019-06-20T06:52:24.665Z,99.90
2019-06-20T06:54:55.326Z,99.90
2019-06-20T06:57:25.802Z,99.90
2019-06-20T06:59:56.302Z,99.90
2019-06-20T07:02:26.757Z,99.90
2019-06-20T07:04:57.234Z,99.90
2019-06-20T07:07:27.642Z,99.90
2019-06-20T07:09:58.143Z,99.10
2019-06-20T07:12:28.743Z,99.50
2019-06-20T07:14:59.327Z,96.70
2019-06-20T07:17:29.810Z,96.80
2019-06-20T07:20:00.427Z,95.40
2019-06-20T07:22:31.342Z,96.40
2019-06-20T07:25:01.850Z,97.50
2019-06-20T07:27:32.266Z,96.50
2019-06-20T07:30:02.695Z,96.90
2019-06-20T07:32:33.099Z,97.20
2019-06-20T07:35:03.744Z,96.50
2019-06-20T07:37:34.347Z,96.50
2019-06-20T07:40:07.786Z,96.60
2019-06-20T07:42:38.241Z,96.20
2019-06-20T07:45:09.525Z,96.40
2019-06-20T07:47:40.323Z,95.90
2019-06-20T07:50:10.973Z,97.40
2019-06-20T07:52:41.450Z,99.30
2019-06-20T07:55:13.242Z,97.10
2019-06-20T07:57:43.666Z,95.70
2019-06-20T08:00:15.687Z,95.60
2019-06-20T08:02:46.205Z,94.90
2019-06-20T08:05:18.423Z,94.80
2019-06-20T08:07:49.123Z,95.50
2019-06-20T08:10:20.558Z,96.00
2019-06-20T08:12:51.038Z,96.70
2019-06-20T08:15:21.892Z,96.60
2019-06-20T08:17:52.448Z,97.50
2019-06-20T08:20:23.200Z,97.60
2019-06-20T08:22:53.600Z,97.40
2019-06-20T08:25:24.318Z,98.20
2019-06-20T08:27:57.098Z,98.20
2019-06-20T08:30:30.828Z,99.60
2019-06-20T08:33:04.376Z,99.70
2019-06-20T08:35:33.910Z,99.60
2019-06-20T08:38:06.117Z,99.90
2019-06-20T08:40:40.652Z,99.90
2019-06-20T08:43:11.254Z,99.90
2019-06-20T08:45:43.450Z,99.90
2019-06-20T08:48:13.765Z,99.90
2019-06-20T08:50:44.077Z,99.90
2019-06-20T08:53:14.661Z,99.90
2019-06-20T08:55:44.985Z,99.90
2019-06-20T08:58:15.503Z,99.90
2019-06-20T09:00:45.902Z,99.90
2019-06-20T09:03:16.374Z,99.90
2019-06-20T09:05:46.842Z,99.90
2019-06-20T09:08:17.182Z,99.90
2019-06-20T09:10:47.662Z,99.90
2019-06-20T09:13:18.057Z,99.90
2019-06-20T09:15:48.669Z,99.90
2019-06-20T09:18:19.088Z,99.90
2019-06-20T09:20:49.906Z,99.90
2019-06-20T09:23:20.334Z,99.90
2019-06-20T09:25:51.146Z,99.90
2019-06-20T09:28:22.755Z,99.90
2019-06-20T09:30:53.934Z,99.90
2019-06-20T09:33:26.131Z,99.90
2019-06-20T09:35:57.493Z,99.90
2019-06-20T09:38:28.004Z,99.90
2019-06-20T09:40:59.212Z,99.90
2019-06-20T09:43:29.640Z,99.90
2019-06-20T09:46:00.197Z,99.90
2019-06-20T09:48:30.724Z,99.90
2019-06-20T09:51:01.408Z,99.90
2019-06-20T09:53:32.116Z,99.90
2019-06-20T09:56:02.502Z,99.90
2019-06-20T09:58:33.010Z,99.10
2019-06-20T10:01:03.444Z,99.90
2019-06-20T10:03:33.818Z,99.40
2019-06-20T10:06:13.461Z,99.30
2019-06-20T10:08:36.310Z,99.90
2019-06-20T10:11:06.959Z,99.90
2019-06-20T10:13:37.366Z,99.90
2019-06-20T10:16:07.890Z,99.90
2019-06-20T10:18:38.437Z,99.90
2019-06-20T10:21:09.322Z,99.90
2019-06-20T10:23:39.725Z,99.80
2019-06-20T10:26:10.279Z,99.90
2019-06-20T10:28:40.772Z,99.90
2019-06-20T10:31:11.366Z,99.90
2019-06-20T10:33:41.986Z,99.20
2019-06-20T10:36:12.456Z,99.90
2019-06-20T10:38:43.697Z,99.90
2019-06-20T10:41:14.912Z,99.90
2019-06-20T10:43:45.852Z,97.20
2019-06-20T10:46:16.631Z,97.90
2019-06-20T10:48:47.985Z,99.00
2019-06-20T10:51:39.469Z,99.60
2019-06-20T10:54:09.857Z,98.40
2019-06-20T10:56:40.476Z,98.30
2019-06-20T10:59:12.587Z,97.40
2019-06-20T11:01:44.290Z,98.30
2019-06-20T11:04:14.774Z,98.00
2019-06-20T11:06:45.612Z,97.50
2019-06-20T11:09:16.210Z,97.70
2019-06-20T11:11:47.093Z,99.00
2019-06-20T11:14:17.672Z,98.30
2019-06-20T11:16:49.296Z,98.80
2019-06-20T11:19:20.085Z,98.30
2019-06-20T11:21:50.744Z,99.60
2019-06-20T11:24:21.275Z,99.90
2019-06-20T11:26:51.726Z,99.40
2019-06-20T11:29:22.113Z,98.30
2019-06-20T11:31:52.607Z,97.60
2019-06-20T11:34:22.986Z,98.00
2019-06-20T11:36:53.478Z,99.10
2019-06-20T11:39:23.914Z,97.10
2019-06-20T11:41:54.322Z,97.40
2019-06-20T11:44:24.832Z,97.80
2019-06-20T11:46:55.222Z,97.40
2019-06-20T11:49:25.798Z,96.80
2019-06-20T11:51:56.094Z,97.00
2019-06-20T11:54:26.510Z,96.60
2019-06-20T11:56:56.882Z,97.10
2019-06-20T11:59:27.455Z,96.20
2019-06-20T12:01:57.926Z,96.20
2019-06-20T12:04:28.379Z,95.30
2019-06-20T12:06:59.070Z,95.60
2019-06-20T12:09:30.037Z,96.50
2019-06-20T12:12:00.835Z,96.30
2019-06-20T12:14:31.307Z,96.50
2019-06-20T12:17:01.809Z,96.60
2019-06-20T12:19:32.174Z,95.40
2019-06-20T12:22:02.795Z,96.20
2019-06-20T12:24:33.279Z,95.90
2019-06-20T12:27:03.764Z,96.00
2019-06-20T12:29:34.331Z,95.80
2019-06-20T12:32:04.723Z,96.20
2019-06-20T12:34:35.161Z,96.00
2019-06-20T12:37:06.073Z,96.60
2019-06-20T12:39:38.621Z,93.10
2019-06-20T12:42:08.621Z,93.50
2019-06-20T12:44:40.083Z,93.40
2019-06-20T12:47:10.710Z,93.60
2019-06-20T12:49:41.807Z,95.60
2019-06-20T12:52:12.320Z,93.40
2019-06-20T12:54:43.301Z,94.90
2019-06-20T12:57:13.734Z,91.80
2019-06-20T12:59:44.594Z,91.90
2019-06-20T13:02:15.498Z,90.50
2019-06-20T13:04:46.477Z,91.90
2019-06-20T13:07:16.791Z,91.40
2019-06-20T13:09:48.321Z,90.40
2019-06-20T13:12:18.770Z,89.40
2019-06-20T13:14:49.644Z,92.00
2019-06-20T13:17:20.094Z,90.30
2019-06-20T13:19:50.570Z,91.00
2019-06-20T13:22:21.079Z,89.70
2019-06-20T13:24:51.627Z,88.00
2019-06-20T13:27:22.206Z,87.60
2019-06-20T13:29:53.039Z,87.70
2019-06-20T13:32:23.422Z,86.20
2019-06-20T13:34:53.950Z,88.50
2019-06-20T13:37:24.326Z,87.20
2019-06-20T13:39:54.837Z,87.00
2019-06-20T13:42:25.422Z,87.90
2019-06-20T13:44:55.822Z,90.30
2019-06-20T13:47:26.275Z,91.50
2019-06-20T13:49:56.718Z,89.10
2019-06-20T13:52:27.179Z,89.10
2019-06-20T13:54:57.563Z,88.90
2019-06-20T13:57:28.014Z,87.30
2019-06-20T13:59:58.441Z,85.80
2019-06-20T14:02:28.876Z,86.90
2019-06-20T14:04:59.274Z,88.60
2019-06-20T14:07:29.654Z,87.80
2019-06-20T14:10:00.183Z,87.30
2019-06-20T14:12:30.630Z,87.80
2019-06-20T14:15:01.122Z,86.90
2019-06-20T14:17:31.562Z,89.10
2019-06-20T14:20:02.128Z,88.20
2019-06-20T14:22:32.698Z,87.70
2019-06-20T14:25:03.489Z,87.20
2019-06-20T14:27:35.111Z,86.20
2019-06-20T14:30:07.197Z,86.80
2019-06-20T14:32:37.595Z,86.50
2019-06-20T14:35:08.410Z,86.20
2019-06-20T14:37:38.830Z,86.30
2019-06-20T14:40:10.220Z,86.80
2019-06-20T14:42:40.634Z,83.00
2019-06-20T14:45:11.113Z,84.00
2019-06-20T14:47:41.536Z,85.10
2019-06-20T14:50:14.036Z,84.60
2019-06-20T14:52:46.152Z,86.70
2019-06-20T14:55:18.482Z,85.90
2019-06-20T14:57:50.471Z,85.40
2019-06-20T15:00:22.208Z,85.60
2019-06-20T15:02:57.652Z,82.10
2019-06-20T15:05:24.636Z,81.60
2019-06-20T15:07:55.835Z,82.10
2019-06-20T15:10:26.618Z,83.70
2019-06-20T15:12:57.643Z,82.00
2019-06-20T15:15:31.446Z,81.40
2019-06-20T15:18:00.765Z,84.60
2019-06-20T15:20:31.250Z,85.20
2019-06-20T15:23:03.041Z,85.90
2019-06-20T15:25:34.078Z,85.90
2019-06-20T15:28:04.490Z,82.20
2019-06-20T15:30:34.870Z,83.00
2019-06-20T15:33:10.082Z,81.40
2019-06-20T15:35:37.372Z,82.20
2019-06-20T15:38:09.334Z,81.00
2019-06-20T15:40:41.525Z,82.60
2019-06-20T15:43:11.913Z,83.60
2019-06-20T15:45:42.307Z,83.80
2019-06-20T15:48:12.854Z,85.00
2019-06-20T15:50:43.429Z,90.00
2019-06-20T15:53:13.887Z,88.70
2019-06-20T15:55:44.383Z,89.20
2019-06-20T15:58:14.958Z,89.60
2019-06-20T16:00:45.425Z,88.70
2019-06-20T16:03:16.229Z,88.00
2019-06-20T16:05:47.014Z,88.70
2019-06-20T16:08:17.546Z,90.30
2019-06-20T16:10:48.107Z,90.50
2019-06-20T16:13:18.510Z,91.20
2019-06-20T16:15:49.002Z,91.70
2019-06-20T16:18:19.487Z,92.90
2019-06-20T16:20:50.088Z,94.70
2019-06-20T16:23:20.549Z,96.00
2019-06-20T16:25:50.997Z,96.70
2019-06-20T16:28:21.883Z,96.50
2019-06-20T16:31:05.214Z,97.00
2019-06-20T16:33:25.747Z,97.80
2019-06-20T16:35:56.336Z,98.90
2019-06-20T16:38:26.765Z,98.80
2019-06-20T16:40:57.193Z,98.90
2019-06-20T16:43:27.606Z,98.70
2019-06-20T16:45:58.135Z,98.50
2019-06-20T16:48:28.631Z,98.80
2019-06-20T16:50:59.178Z,98.90
2019-06-20T16:53:29.600Z,99.00
2019-06-20T16:56:00.178Z,99.60
2019-06-20T16:58:30.570Z,99.90
2019-06-20T17:01:01.455Z,99.90
2019-06-20T17:03:41.302Z,99.90
2019-06-20T17:06:04.194Z,99.90
2019-06-20T17:08:34.623Z,99.90
2019-06-20T17:11:05.380Z,99.90
2019-06-20T17:13:38.125Z,99.90
2019-06-20T17:16:08.577Z,99.90
2019-06-20T17:18:39.049Z,99.90
2019-06-20T17:21:09.549Z,99.90
2019-06-20T17:23:39.946Z,99.90
2019-06-20T17:26:10.339Z,99.90
2019-06-20T17:28:40.927Z,99.90
2019-06-20T17:31:11.350Z,99.90
2019-06-20T17:33:56.796Z,99.90
2019-06-20T17:36:18.166Z,99.90
2019-06-20T17:38:46.144Z,99.90
2019-06-20T17:41:16.797Z,99.90
2019-06-20T17:43:47.379Z,99.90
2019-06-20T17:46:17.807Z,99.90
2019-06-20T17:48:48.190Z,99.90
2019-06-20T17:51:18.623Z,99.90
2019-06-20T17:53:49.745Z,99.90
2019-06-20T17:56:20.334Z,99.90
2019-06-20T17:58:50.636Z,99.90
2019-06-20T18:01:21.090Z,99.90
2019-06-20T18:03:52.341Z,99.90
2019-06-20T18:06:22.833Z,99.90
2019-06-20T18:08:53.209Z,99.90
2019-06-20T18:11:23.746Z,99.90
2019-06-20T18:13:54.153Z,99.90
2019-06-20T18:16:25.560Z,99.90
2019-06-20T18:18:56.087Z,99.90
2019-06-20T18:21:26.578Z,99.90
2019-06-20T18:23:57.007Z,99.90
2019-06-20T18:26:27.385Z,99.90
2019-06-20T18:28:57.991Z,99.90
2019-06-20T18:31:28.909Z,99.90
2019-06-20T18:33:59.361Z,99.90
2019-06-20T18:36:29.791Z,99.90
2019-06-20T18:39:00.382Z,99.90
2019-06-20T18:41:30.950Z,99.90
2019-06-20T18:44:01.338Z,99.90
2019-06-20T18:46:31.654Z,99.90
2019-06-20T18:49:02.141Z,99.90
2019-06-20T18:51:32.680Z,99.90
2019-06-20T18:54:03.067Z,99.90
2019-06-20T18:56:33.771Z,99.90
2019-06-20T18:59:04.243Z,99.90
2019-06-20T19:01:34.764Z,99.90
2019-06-20T19:04:05.236Z,99.90
2019-06-20T19:06:36.501Z,99.90
2019-06-20T19:09:09.243Z,99.90
2019-06-20T19:11:39.606Z,99.90
2019-06-20T19:14:12.620Z,99.90
2019-06-20T19:16:42.122Z,99.90
2019-06-20T19:19:12.942Z,99.90
2019-06-20T19:21:43.370Z,99.90
2019-06-20T19:24:13.754Z,99.90
2019-06-20T19:26:44.318Z,99.90
2019-06-20T19:29:14.757Z,99.90
2019-06-20T19:31:45.194Z,99.90
2019-06-20T19:34:15.579Z,99.90
2019-06-20T19:36:46.086Z,99.90
2019-06-20T19:39:16.587Z,99.90
2019-06-20T19:41:47.002Z,99.90
2019-06-20T19:44:17.395Z,99.90
2019-06-20T19:46:48.375Z,99.90
2019-06-20T19:49:18.775Z,99.90
2019-06-20T19:51:49.385Z,99.90
2019-06-20T19:54:19.775Z,99.90
2019-06-20T19:56:50.245Z,99.90
2019-06-20T19:59:20.716Z,99.90
2019-06-20T20:01:51.298Z,99.90
2019-06-20T20:04:21.736Z,99.90
2019-06-20T20:06:52.194Z,99.90
2019-06-20T20:09:22.774Z,99.90
2019-06-20T20:11:53.363Z,99.90
2019-06-20T20:14:23.996Z,99.90
2019-06-20T20:16:54.370Z,99.90
2019-06-20T20:19:24.774Z,99.90
2019-06-20T20:21:55.286Z,99.90
2019-06-20T20:24:26.050Z,99.90
2019-06-20T20:26:57.089Z,99.90
2019-06-20T20:29:27.507Z,99.90
2019-06-20T20:31:58.086Z,99.90
2019-06-20T20:34:28.575Z,99.90
2019-06-20T20:36:59.074Z,99.90
2019-06-20T20:39:29.566Z,99.90
2019-06-20T20:42:00.082Z,99.90
2019-06-20T20:44:30.678Z,99.90
2019-06-20T20:47:01.186Z,99.90
2019-06-20T20:49:31.647Z,99.90
2019-06-20T20:52:02.074Z,99.90
2019-06-20T20:54:32.636Z,99.90
2019-06-20T20:57:03.511Z,99.90
2019-06-20T20:59:34.143Z,99.90
2019-06-20T21:02:04.750Z,99.90
2019-06-20T21:04:35.722Z,99.90
2019-06-20T21:07:06.162Z,99.90
2019-06-20T21:09:36.561Z,99.90
2019-06-20T21:12:07.710Z,99.90
2019-06-20T21:14:38.018Z,99.90
2019-06-20T21:17:08.512Z,99.90
2019-06-20T21:19:38.981Z,99.90
2019-06-20T21:22:12.527Z,99.90
2019-06-20T21:24:42.989Z,99.90
2019-06-20T21:27:13.604Z,99.90
2019-06-20T21:29:44.093Z,99.90
2019-06-20T21:32:14.546Z,99.90
2019-06-20T21:34:45.046Z,99.90
2019-06-20T21:37:15.349Z,99.90
2019-06-20T21:39:45.876Z,99.90
2019-06-20T21:42:16.246Z,99.90
2019-06-20T21:44:46.769Z,99.90
2019-06-20T21:47:17.338Z,99.90
2019-06-20T21:49:47.734Z,99.90
2019-06-20T21:52:18.246Z,99.90
2019-06-20T21:54:48.750Z,99.90
2019-06-20T21:57:19.274Z,99.90
2019-06-20T21:59:49.898Z,99.90
2019-06-20T22:02:20.563Z,99.90
2019-06-20T22:04:54.810Z,99.90
2019-06-20T22:07:23.069Z,99.90
2019-06-20T22:09:53.462Z,99.90
2019-06-20T22:12:23.857Z,99.90
2019-06-20T22:14:54.161Z,99.90
2019-06-20T22:17:24.664Z,99.90
2019-06-20T22:19:55.046Z,99.90
2019-06-20T22:22:25.474Z,99.90
2019-06-20T22:24:55.873Z,99.90
2019-06-20T22:27:26.278Z,99.90
2019-06-20T22:29:56.706Z,99.90
2019-06-20T22:32:27.166Z,99.90
2019-06-20T22:34:57.652Z,99.90
2019-06-20T22:37:28.048Z,99.90
2019-06-20T22:39:59.046Z,99.90
2019-06-20T22:42:29.465Z,99.90
2019-06-20T22:44:59.993Z,99.90
2019-06-20T22:47:30.350Z,99.90
2019-06-20T22:50:00.755Z,99.90
2019-06-20T22:52:31.251Z,99.90
2019-06-20T22:55:01.779Z,99.90
2019-06-20T22:57:32.250Z,99.90
2019-06-20T23:00:02.578Z,99.90
2019-06-20T23:02:32.980Z,99.90
2019-06-20T23:05:03.445Z,99.90
2019-06-20T23:07:33.830Z,99.90
2019-06-20T23:10:10.668Z,99.90
2019-06-20T23:12:37.134Z,99.90
2019-06-20T23:15:08.639Z,99.90
2019-06-20T23:17:39.048Z,99.90
2019-06-20T23:20:10.545Z,99.90
2019-06-20T23:22:40.918Z,99.90
2019-06-20T23:25:12.230Z,99.90
2019-06-20T23:27:43.214Z,99.90
2019-06-20T23:30:14.382Z,99.90
2019-06-20T23:32:44.802Z,99.90
2019-06-20T23:35:15.286Z,99.90
2019-06-20T23:37:45.662Z,99.90
2019-06-20T23:40:17.594Z,99.90
2019-06-20T23:42:48.166Z,99.90
2019-06-20T23:45:19.033Z,99.90
2019-06-20T23:47:49.435Z,99.90
2019-06-20T23:50:20.214Z,99.90
2019-06-20T23:52:58.997Z,99.90
2019-06-20T23:55:29.461Z,99.90
2019-06-20T23:57:59.871Z,99.90
